KLM993 EHAM-EGLC
Flight info
| Callsign | KLM993 |
|---|---|
| Flight time | 0h 49m |
| Altitude | 20000 |
| Route | IDRID L980 XAMAN |
| Aircraft | E190/M-SDE3GILORVW/S |
Departure
| Time | 2026-05-05 20:56 |
|---|---|
| Airport | Amsterdam Airport Schiphol (EHAM) |
Arrival
| Time | 2026-05-05 21:46 |
|---|---|
| Airport | London City Airport (EGLC) |
| Time | Latitude | Longitude | Altitude | Speed | Heading |
|---|---|---|---|---|---|
| 2026-05-05 20:31 | 52.30071 | 4.75487 | 3 ft | 0 kts | 238° |
| 2026-05-05 20:41 | 52.30071 | 4.75486 | 3 ft | 0 kts | 239° |
| 2026-05-05 20:41 | 52.30077 | 4.75502 | 3 ft | 0 kts | 238° |
| 2026-05-05 20:42 | 52.30080 | 4.75510 | 3 ft | 2 kts | 231° |
| 2026-05-05 20:42 | 52.30091 | 4.75525 | 3 ft | 2 kts | 206° |
| 2026-05-05 20:42 | 52.30105 | 4.75532 | 3 ft | 2 kts | 184° |
| 2026-05-05 20:42 | 52.30120 | 4.75530 | 3 ft | 2 kts | 161° |
| 2026-05-05 20:43 | 52.30129 | 4.75522 | 4 ft | 0 kts | 147° |
| 2026-05-05 20:44 | 52.30116 | 4.75537 | 3 ft | 5 kts | 146° |
| 2026-05-05 20:44 | 52.30065 | 4.75586 | 1 ft | 11 kts | 148° |
| 2026-05-05 20:45 | 52.29951 | 4.75625 | -1 ft | 8 kts | 233° |
| 2026-05-05 20:45 | 52.29919 | 4.75540 | 0 ft | 8 kts | 238° |
| 2026-05-05 20:45 | 52.29866 | 4.75403 | 0 ft | 12 kts | 239° |
| 2026-05-05 20:46 | 52.29836 | 4.75314 | 0 ft | 13 kts | 255° |
| 2026-05-05 20:46 | 52.29877 | 4.75127 | 2 ft | 14 kts | 313° |
| 2026-05-05 20:46 | 52.29923 | 4.75042 | 2 ft | 16 kts | 311° |
| 2026-05-05 20:46 | 52.30003 | 4.74894 | 1 ft | 19 kts | 311° |
| 2026-05-05 20:47 | 52.30092 | 4.74728 | -1 ft | 20 kts | 311° |
| 2026-05-05 20:47 | 52.30224 | 4.74485 | -7 ft | 22 kts | 312° |
| 2026-05-05 20:47 | 52.30291 | 4.74361 | -10 ft | 22 kts | 312° |
| 2026-05-05 20:47 | 52.30406 | 4.74195 | -12 ft | 21 kts | 351° |
| 2026-05-05 20:48 | 52.30592 | 4.74206 | -11 ft | 19 kts | 3° |
| 2026-05-05 20:48 | 52.30679 | 4.74216 | -10 ft | 18 kts | 2° |
| 2026-05-05 20:48 | 52.30842 | 4.74229 | -7 ft | 16 kts | 4° |
| 2026-05-05 20:48 | 52.30919 | 4.74237 | -6 ft | 16 kts | 4° |
| 2026-05-05 20:49 | 52.31076 | 4.74251 | -4 ft | 19 kts | 4° |
| 2026-05-05 20:49 | 52.31211 | 4.74264 | -4 ft | 19 kts | 3° |
| 2026-05-05 20:49 | 52.31340 | 4.74275 | -4 ft | 17 kts | 4° |
| 2026-05-05 20:49 | 52.31466 | 4.74286 | -6 ft | 19 kts | 1° |
| 2026-05-05 20:50 | 52.31604 | 4.74299 | -7 ft | 20 kts | 4° |
| 2026-05-05 20:50 | 52.31699 | 4.74305 | -7 ft | 20 kts | 0° |
| 2026-05-05 20:50 | 52.31842 | 4.74322 | -7 ft | 21 kts | 4° |
| 2026-05-05 20:50 | 52.31987 | 4.74331 | -7 ft | 18 kts | 350° |
| 2026-05-05 20:51 | 52.32035 | 4.74110 | -7 ft | 17 kts | 272° |
| 2026-05-05 20:51 | 52.32044 | 4.73897 | -6 ft | 18 kts | 274° |
| 2026-05-05 20:51 | 52.32048 | 4.73766 | -4 ft | 16 kts | 273° |
| 2026-05-05 20:51 | 52.32056 | 4.73581 | -4 ft | 15 kts | 272° |
| 2026-05-05 20:52 | 52.32088 | 4.73361 | -4 ft | 14 kts | 312° |
| 2026-05-05 20:52 | 52.32140 | 4.73284 | -5 ft | 16 kts | 319° |
| 2026-05-05 20:52 | 52.32230 | 4.73155 | -7 ft | 18 kts | 319° |
| 2026-05-05 20:52 | 52.32370 | 4.72961 | -7 ft | 20 kts | 319° |
| 2026-05-05 20:53 | 52.32441 | 4.72860 | -7 ft | 20 kts | 317° |
| 2026-05-05 20:53 | 52.32586 | 4.72654 | -5 ft | 20 kts | 320° |
| 2026-05-05 20:53 | 52.32688 | 4.72500 | -4 ft | 19 kts | 315° |
| 2026-05-05 20:53 | 52.32780 | 4.72333 | -4 ft | 19 kts | 311° |
| 2026-05-05 20:54 | 52.32873 | 4.72165 | -4 ft | 20 kts | 311° |
| 2026-05-05 20:54 | 52.32968 | 4.71985 | -6 ft | 21 kts | 311° |
| 2026-05-05 20:54 | 52.33070 | 4.71796 | -7 ft | 22 kts | 312° |
| 2026-05-05 20:54 | 52.33137 | 4.71660 | -7 ft | 22 kts | 299° |
| 2026-05-05 20:55 | 52.33143 | 4.71419 | -8 ft | 21 kts | 291° |
| 2026-05-05 20:55 | 52.33269 | 4.71171 | -7 ft | 21 kts | 311° |
| 2026-05-05 20:55 | 52.33333 | 4.71051 | -7 ft | 21 kts | 312° |
| 2026-05-05 20:55 | 52.33420 | 4.70938 | -7 ft | 0 kts | 2° |
| 2026-05-05 20:56 | 52.33580 | 4.70952 | -7 ft | 60 kts | 2° |
| 2026-05-05 20:56 | 52.34265 | 4.71014 | -7 ft | 131 kts | 4° |
| 2026-05-05 20:56 | 52.35227 | 4.71104 | 505 ft | 142 kts | 6° |
| 2026-05-05 20:56 | 52.35861 | 4.71192 | 1071 ft | 138 kts | 6° |
| 2026-05-05 20:57 | 52.37181 | 4.71365 | 1903 ft | 163 kts | 8° |
| 2026-05-05 20:57 | 52.38417 | 4.71503 | 2506 ft | 189 kts | 7° |
| 2026-05-05 20:57 | 52.39771 | 4.71642 | 3264 ft | 206 kts | 6° |
| 2026-05-05 20:57 | 52.41235 | 4.71787 | 3981 ft | 228 kts | 6° |
| 2026-05-05 20:58 | 52.42917 | 4.71948 | 4680 ft | 253 kts | 5° |
| 2026-05-05 20:58 | 52.44687 | 4.72113 | 5663 ft | 264 kts | 5° |
| 2026-05-05 20:58 | 52.46518 | 4.72283 | 6792 ft | 268 kts | 4° |
| 2026-05-05 20:58 | 52.48365 | 4.72454 | 7903 ft | 270 kts | 4° |
| 2026-05-05 20:59 | 52.50213 | 4.72626 | 8925 ft | 274 kts | 4° |
| 2026-05-05 20:59 | 52.52126 | 4.72804 | 9872 ft | 280 kts | 3° |
| 2026-05-05 20:59 | 52.54091 | 4.72987 | 10743 ft | 287 kts | 3° |
| 2026-05-05 20:59 | 52.56095 | 4.73012 | 11474 ft | 298 kts | 349° |
| 2026-05-05 21:00 | 52.57977 | 4.71557 | 12123 ft | 310 kts | 318° |
| 2026-05-05 21:00 | 52.58884 | 4.69736 | 12590 ft | 317 kts | 298° |
| 2026-05-05 21:00 | 52.59380 | 4.65027 | 13674 ft | 327 kts | 265° |
| 2026-05-05 21:00 | 52.59205 | 4.61317 | 14586 ft | 329 kts | 268° |
| 2026-05-05 21:01 | 52.58919 | 4.57575 | 15407 ft | 334 kts | 251° |
| 2026-05-05 21:01 | 52.58208 | 4.55360 | 15928 ft | 338 kts | 232° |
| 2026-05-05 21:01 | 52.55720 | 4.52363 | 17023 ft | 343 kts | 204° |
| 2026-05-05 21:01 | 52.53522 | 4.50822 | 17898 ft | 345 kts | 202° |
| 2026-05-05 21:02 | 52.51316 | 4.49297 | 18712 ft | 348 kts | 202° |
| 2026-05-05 21:02 | 52.49058 | 4.47746 | 19526 ft | 352 kts | 202° |
| 2026-05-05 21:02 | 52.46818 | 4.46211 | 19884 ft | 351 kts | 202° |
| 2026-05-05 21:02 | 52.44533 | 4.44647 | 19940 ft | 371 kts | 202° |
| 2026-05-05 21:03 | 52.42100 | 4.42980 | 19935 ft | 382 kts | 203° |
| 2026-05-05 21:03 | 52.39922 | 4.40560 | 19921 ft | 385 kts | 226° |
| 2026-05-05 21:03 | 52.38421 | 4.36943 | 19961 ft | 387 kts | 241° |
| 2026-05-05 21:03 | 52.37144 | 4.33080 | 19932 ft | 386 kts | 240° |
| 2026-05-05 21:04 | 52.35882 | 4.29235 | 19927 ft | 385 kts | 240° |
| 2026-05-05 21:04 | 52.34606 | 4.25341 | 19925 ft | 386 kts | 240° |
| 2026-05-05 21:04 | 52.33341 | 4.21481 | 19935 ft | 401 kts | 240° |
| 2026-05-05 21:04 | 52.31989 | 4.17364 | 19946 ft | 421 kts | 240° |
| 2026-05-05 21:05 | 52.30347 | 4.13355 | 19939 ft | 424 kts | 231° |
| 2026-05-05 21:05 | 52.28531 | 4.09553 | 19935 ft | 424 kts | 231° |
| 2026-05-05 21:05 | 52.26742 | 4.05809 | 19933 ft | 423 kts | 231° |
| 2026-05-05 21:05 | 52.24927 | 4.02013 | 19932 ft | 423 kts | 231° |
| 2026-05-05 21:06 | 52.23125 | 3.98248 | 19936 ft | 423 kts | 231° |
| 2026-05-05 21:06 | 52.21327 | 3.94496 | 19940 ft | 423 kts | 231° |
| 2026-05-05 21:06 | 52.19515 | 3.90721 | 19936 ft | 424 kts | 231° |
| 2026-05-05 21:06 | 52.17696 | 3.86938 | 19933 ft | 424 kts | 231° |
| 2026-05-05 21:07 | 52.15894 | 3.83194 | 19937 ft | 424 kts | 231° |
| 2026-05-05 21:07 | 52.14051 | 3.79373 | 19931 ft | 425 kts | 231° |
| 2026-05-05 21:07 | 52.12243 | 3.75627 | 19922 ft | 426 kts | 231° |
| 2026-05-05 21:07 | 52.10422 | 3.71861 | 19918 ft | 426 kts | 231° |
| 2026-05-05 21:08 | 52.08590 | 3.68079 | 19914 ft | 426 kts | 231° |
| 2026-05-05 21:08 | 52.07363 | 3.65548 | 19914 ft | 426 kts | 231° |
| 2026-05-05 21:08 | 52.04926 | 3.60528 | 19914 ft | 426 kts | 231° |
| 2026-05-05 21:08 | 52.03103 | 3.56783 | 19920 ft | 425 kts | 231° |
| 2026-05-05 21:09 | 52.01260 | 3.52997 | 19926 ft | 426 kts | 231° |
| 2026-05-05 21:09 | 51.99447 | 3.49257 | 19925 ft | 426 kts | 233° |
| 2026-05-05 21:09 | 51.97693 | 3.45369 | 19928 ft | 427 kts | 233° |
| 2026-05-05 21:09 | 51.95944 | 3.41492 | 19929 ft | 428 kts | 233° |
| 2026-05-05 21:10 | 51.94196 | 3.37625 | 19929 ft | 428 kts | 233° |
| 2026-05-05 21:10 | 51.92427 | 3.33720 | 19928 ft | 428 kts | 233° |
| 2026-05-05 21:10 | 51.90671 | 3.29848 | 19936 ft | 428 kts | 233° |
| 2026-05-05 21:10 | 51.88908 | 3.25968 | 19923 ft | 427 kts | 233° |
| 2026-05-05 21:11 | 51.87162 | 3.22129 | 19931 ft | 429 kts | 233° |
| 2026-05-05 21:11 | 51.85502 | 3.18126 | 19905 ft | 428 kts | 244° |
| 2026-05-05 21:11 | 51.84706 | 3.13551 | 19940 ft | 428 kts | 262° |
| 2026-05-05 21:11 | 51.84378 | 3.08740 | 19936 ft | 428 kts | 264° |
| 2026-05-05 21:12 | 51.84066 | 3.03977 | 19927 ft | 429 kts | 264° |
| 2026-05-05 21:12 | 51.83754 | 2.99198 | 19935 ft | 430 kts | 264° |
| 2026-05-05 21:12 | 51.83438 | 2.94388 | 19921 ft | 430 kts | 264° |
| 2026-05-05 21:12 | 51.83121 | 2.89583 | 19936 ft | 431 kts | 264° |
| 2026-05-05 21:13 | 51.82801 | 2.84764 | 19929 ft | 430 kts | 264° |
| 2026-05-05 21:13 | 51.82481 | 2.79973 | 19928 ft | 432 kts | 264° |
| 2026-05-05 21:13 | 51.82161 | 2.75208 | 19931 ft | 430 kts | 264° |
| 2026-05-05 21:13 | 51.81837 | 2.70421 | 19926 ft | 420 kts | 264° |
| 2026-05-05 21:14 | 51.81529 | 2.65910 | 19894 ft | 392 kts | 264° |
| 2026-05-05 21:14 | 51.81235 | 2.61638 | 19858 ft | 373 kts | 264° |
| 2026-05-05 21:14 | 51.80950 | 2.57509 | 19851 ft | 374 kts | 264° |
| 2026-05-05 21:14 | 51.80658 | 2.53308 | 19807 ft | 378 kts | 264° |
| 2026-05-05 21:15 | 51.80365 | 2.49106 | 19436 ft | 378 kts | 264° |
| 2026-05-05 21:15 | 51.80070 | 2.44905 | 19026 ft | 375 kts | 264° |
| 2026-05-05 21:15 | 51.79778 | 2.40772 | 18619 ft | 372 kts | 264° |
| 2026-05-05 21:15 | 51.79484 | 2.36625 | 18210 ft | 368 kts | 265° |
| 2026-05-05 21:16 | 51.79196 | 2.32578 | 17809 ft | 366 kts | 264° |
| 2026-05-05 21:16 | 51.78903 | 2.28489 | 17405 ft | 364 kts | 264° |
| 2026-05-05 21:16 | 51.78615 | 2.24486 | 17008 ft | 362 kts | 264° |
| 2026-05-05 21:16 | 51.78354 | 2.20490 | 16617 ft | 359 kts | 265° |
| 2026-05-05 21:17 | 51.78120 | 2.16472 | 16223 ft | 356 kts | 265° |
| 2026-05-05 21:17 | 51.77890 | 2.12549 | 15835 ft | 353 kts | 265° |
| 2026-05-05 21:17 | 51.77658 | 2.08609 | 15447 ft | 351 kts | 265° |
| 2026-05-05 21:17 | 51.77429 | 2.04745 | 15066 ft | 349 kts | 265° |
| 2026-05-05 21:18 | 51.77197 | 2.00856 | 14679 ft | 346 kts | 265° |
| 2026-05-05 21:18 | 51.76967 | 1.97014 | 14298 ft | 344 kts | 265° |
| 2026-05-05 21:18 | 51.76737 | 1.93194 | 13920 ft | 342 kts | 265° |
| 2026-05-05 21:18 | 51.76507 | 1.89399 | 13547 ft | 336 kts | 265° |
| 2026-05-05 21:19 | 51.76284 | 1.85738 | 13178 ft | 323 kts | 265° |
| 2026-05-05 21:19 | 51.76065 | 1.82178 | 12826 ft | 312 kts | 265° |
| 2026-05-05 21:19 | 51.75855 | 1.78759 | 12487 ft | 302 kts | 265° |
| 2026-05-05 21:19 | 51.75652 | 1.75464 | 12164 ft | 294 kts | 266° |
| 2026-05-05 21:20 | 51.75450 | 1.72216 | 11852 ft | 294 kts | 266° |
| 2026-05-05 21:20 | 51.75245 | 1.68914 | 11528 ft | 295 kts | 266° |
| 2026-05-05 21:20 | 51.75039 | 1.65627 | 11208 ft | 295 kts | 266° |
| 2026-05-05 21:20 | 51.74833 | 1.62363 | 10882 ft | 294 kts | 266° |
| 2026-05-05 21:21 | 51.74628 | 1.59129 | 10563 ft | 287 kts | 266° |
| 2026-05-05 21:21 | 51.74429 | 1.55984 | 10246 ft | 279 kts | 266° |
| 2026-05-05 21:21 | 51.74232 | 1.52904 | 9943 ft | 271 kts | 266° |
| 2026-05-05 21:21 | 51.74043 | 1.49947 | 9647 ft | 264 kts | 266° |
| 2026-05-05 21:22 | 51.73856 | 1.47054 | 9362 ft | 258 kts | 266° |
| 2026-05-05 21:22 | 51.73672 | 1.44196 | 9074 ft | 251 kts | 266° |
| 2026-05-05 21:22 | 51.73374 | 1.41471 | 8871 ft | 243 kts | 258° |
| 2026-05-05 21:22 | 51.72954 | 1.38902 | 8866 ft | 236 kts | 258° |
| 2026-05-05 21:23 | 51.72533 | 1.36328 | 8865 ft | 239 kts | 258° |
| 2026-05-05 21:23 | 51.72104 | 1.33716 | 8873 ft | 241 kts | 257° |
| 2026-05-05 21:23 | 51.71675 | 1.31111 | 8874 ft | 242 kts | 257° |
| 2026-05-05 21:23 | 51.71244 | 1.28498 | 8870 ft | 242 kts | 257° |
| 2026-05-05 21:24 | 51.70814 | 1.25890 | 8872 ft | 242 kts | 257° |
| 2026-05-05 21:24 | 51.70382 | 1.23283 | 8871 ft | 242 kts | 257° |
| 2026-05-05 21:24 | 51.69950 | 1.20670 | 8871 ft | 241 kts | 257° |
| 2026-05-05 21:24 | 51.69517 | 1.18065 | 8863 ft | 241 kts | 257° |
| 2026-05-05 21:25 | 51.69081 | 1.15437 | 8864 ft | 241 kts | 257° |
| 2026-05-05 21:25 | 51.68650 | 1.12851 | 8861 ft | 241 kts | 257° |
| 2026-05-05 21:25 | 51.68214 | 1.10231 | 8857 ft | 242 kts | 257° |
| 2026-05-05 21:25 | 51.67781 | 1.07637 | 8861 ft | 241 kts | 257° |
| 2026-05-05 21:26 | 51.67348 | 1.05049 | 8860 ft | 241 kts | 257° |
| 2026-05-05 21:26 | 51.66909 | 1.02422 | 8860 ft | 241 kts | 257° |
| 2026-05-05 21:26 | 51.66475 | 0.99837 | 8841 ft | 242 kts | 257° |
| 2026-05-05 21:26 | 51.66037 | 0.97227 | 8843 ft | 242 kts | 257° |
| 2026-05-05 21:27 | 51.65595 | 0.94599 | 8836 ft | 242 kts | 257° |
| 2026-05-05 21:27 | 51.65155 | 0.91984 | 8834 ft | 241 kts | 257° |
| 2026-05-05 21:27 | 51.64718 | 0.89393 | 8832 ft | 241 kts | 257° |
| 2026-05-05 21:27 | 51.64281 | 0.86806 | 8825 ft | 241 kts | 257° |
| 2026-05-05 21:28 | 51.63840 | 0.84200 | 8807 ft | 241 kts | 257° |
| 2026-05-05 21:28 | 51.63399 | 0.81598 | 8798 ft | 241 kts | 257° |
| 2026-05-05 21:28 | 51.62964 | 0.79031 | 8797 ft | 241 kts | 257° |
| 2026-05-05 21:28 | 51.62521 | 0.76427 | 8796 ft | 241 kts | 257° |
| 2026-05-05 21:29 | 51.62078 | 0.73822 | 8796 ft | 241 kts | 257° |
| 2026-05-05 21:29 | 51.61634 | 0.71219 | 8795 ft | 241 kts | 257° |
| 2026-05-05 21:29 | 51.61192 | 0.68627 | 8795 ft | 241 kts | 257° |
| 2026-05-05 21:29 | 51.60744 | 0.66013 | 8794 ft | 241 kts | 257° |
| 2026-05-05 21:30 | 51.60300 | 0.63415 | 8793 ft | 241 kts | 257° |
| 2026-05-05 21:30 | 51.59860 | 0.60847 | 8792 ft | 241 kts | 257° |
| 2026-05-05 21:30 | 51.59412 | 0.58244 | 8792 ft | 242 kts | 257° |
| 2026-05-05 21:30 | 51.58964 | 0.55637 | 8792 ft | 242 kts | 257° |
| 2026-05-05 21:31 | 51.58514 | 0.53024 | 8792 ft | 241 kts | 257° |
| 2026-05-05 21:31 | 51.58070 | 0.50446 | 8691 ft | 243 kts | 257° |
| 2026-05-05 21:31 | 51.57616 | 0.47821 | 8454 ft | 243 kts | 257° |
| 2026-05-05 21:31 | 51.57164 | 0.45209 | 8181 ft | 241 kts | 257° |
| 2026-05-05 21:32 | 51.56723 | 0.42665 | 7922 ft | 238 kts | 257° |
| 2026-05-05 21:32 | 51.56280 | 0.40109 | 7665 ft | 237 kts | 257° |
| 2026-05-05 21:32 | 51.55916 | 0.37564 | 7507 ft | 232 kts | 274° |
| 2026-05-05 21:32 | 51.56074 | 0.35014 | 7530 ft | 230 kts | 281° |
| 2026-05-05 21:33 | 51.56309 | 0.32448 | 7453 ft | 234 kts | 281° |
| 2026-05-05 21:33 | 51.56549 | 0.29845 | 7174 ft | 234 kts | 281° |
| 2026-05-05 21:33 | 51.56779 | 0.27299 | 6903 ft | 232 kts | 281° |
| 2026-05-05 21:33 | 51.57001 | 0.24727 | 6627 ft | 230 kts | 277° |
| 2026-05-05 21:34 | 51.56637 | 0.22256 | 6383 ft | 235 kts | 238° |
| 2026-05-05 21:34 | 51.55667 | 0.20150 | 6119 ft | 239 kts | 237° |
| 2026-05-05 21:34 | 51.54726 | 0.17946 | 5798 ft | 239 kts | 239° |
| 2026-05-05 21:34 | 51.53832 | 0.15708 | 5490 ft | 238 kts | 240° |
| 2026-05-05 21:35 | 51.52967 | 0.13470 | 5183 ft | 237 kts | 240° |
| 2026-05-05 21:35 | 51.52112 | 0.11217 | 4878 ft | 236 kts | 241° |
| 2026-05-05 21:35 | 51.51273 | 0.08983 | 4616 ft | 232 kts | 241° |
| 2026-05-05 21:35 | 51.50720 | 0.06663 | 4317 ft | 219 kts | 273° |
| 2026-05-05 21:36 | 51.51014 | 0.04383 | 4080 ft | 205 kts | 292° |
| 2026-05-05 21:36 | 51.51447 | 0.02227 | 3827 ft | 199 kts | 293° |
| 2026-05-05 21:36 | 51.51870 | 0.00170 | 3630 ft | 190 kts | 294° |
| 2026-05-05 21:36 | 51.52282 | -0.01794 | 3401 ft | 183 kts | 294° |
| 2026-05-05 21:37 | 51.52682 | -0.03694 | 3189 ft | 176 kts | 295° |
| 2026-05-05 21:37 | 51.53066 | -0.05505 | 2992 ft | 170 kts | 294° |
| 2026-05-05 21:37 | 51.53081 | -0.07419 | 2800 ft | 179 kts | 251° |
| 2026-05-05 21:37 | 51.52292 | -0.08932 | 2592 ft | 184 kts | 207° |
| 2026-05-05 21:38 | 51.51071 | -0.09264 | 2415 ft | 177 kts | 162° |
| 2026-05-05 21:38 | 51.50096 | -0.08270 | 2283 ft | 163 kts | 117° |
| 2026-05-05 21:38 | 51.49871 | -0.06607 | 2178 ft | 152 kts | 73° |
| 2026-05-05 21:38 | 51.50140 | -0.04968 | 2074 ft | 149 kts | 74° |
| 2026-05-05 21:39 | 51.50309 | -0.03417 | 1961 ft | 138 kts | 77° |
| 2026-05-05 21:39 | 51.50507 | -0.01843 | 1618 ft | 158 kts | 73° |
| 2026-05-05 21:39 | 51.50624 | -0.00029 | 1242 ft | 168 kts | 87° |
| 2026-05-05 21:39 | 51.50585 | 0.01642 | 1885 ft | 144 kts | 88° |
| 2026-05-05 21:40 | 51.50510 | 0.03298 | 2282 ft | 171 kts | 89° |
| 2026-05-05 21:40 | 51.50386 | 0.05446 | 2542 ft | 209 kts | 94° |
| 2026-05-05 21:40 | 51.50167 | 0.07804 | 2739 ft | 206 kts | 95° |
| 2026-05-05 21:40 | 51.49940 | 0.09874 | 2891 ft | 177 kts | 95° |
| 2026-05-05 21:41 | 51.49711 | 0.11753 | 2714 ft | 170 kts | 96° |
| 2026-05-05 21:41 | 51.49426 | 0.13646 | 2430 ft | 176 kts | 100° |
| 2026-05-05 21:41 | 51.49173 | 0.15495 | 2271 ft | 168 kts | 76° |
| 2026-05-05 21:41 | 51.49913 | 0.16656 | 2012 ft | 162 kts | 5° |
| 2026-05-05 21:42 | 51.50854 | 0.15770 | 2010 ft | 172 kts | 300° |
| 2026-05-05 21:42 | 51.51149 | 0.13902 | 2183 ft | 172 kts | 287° |
| 2026-05-05 21:42 | 51.51378 | 0.12025 | 2143 ft | 174 kts | 286° |
| 2026-05-05 21:42 | 51.51617 | 0.10135 | 2120 ft | 172 kts | 287° |
| 2026-05-05 21:43 | 51.51795 | 0.08394 | 2208 ft | 144 kts | 283° |
| 2026-05-05 21:43 | 51.51897 | 0.06816 | 2181 ft | 150 kts | 282° |
| 2026-05-05 21:43 | 51.51992 | 0.05145 | 2344 ft | 151 kts | 280° |
| 2026-05-05 21:43 | 51.52020 | 0.03421 | 2433 ft | 157 kts | 276° |
| 2026-05-05 21:44 | 51.51994 | 0.01675 | 2576 ft | 156 kts | 272° |
| 2026-05-05 21:44 | 51.52052 | 0.00031 | 2369 ft | 156 kts | 293° |
| 2026-05-05 21:44 | 51.52231 | -0.01641 | 2330 ft | 156 kts | 251° |
| 2026-05-05 21:44 | 51.51343 | -0.02485 | 1917 ft | 154 kts | 166° |
| 2026-05-05 21:45 | 51.50648 | -0.01490 | 1788 ft | 133 kts | 94° |
| 2026-05-05 21:45 | 51.50676 | -0.00033 | 1331 ft | 130 kts | 83° |
| 2026-05-05 21:45 | 51.50639 | 0.01417 | 791 ft | 137 kts | 90° |
| 2026-05-05 21:45 | 51.50594 | 0.02901 | 383 ft | 130 kts | 94° |
| 2026-05-05 21:46 | 51.50559 | 0.04258 | 101 ft | 117 kts | 92° |
| 2026-05-05 21:46 | 51.50526 | 0.05344 | 22 ft | 54 kts | 92° |
| 2026-05-05 21:46 | 51.50513 | 0.05814 | 20 ft | 32 kts | 92° |
| 2026-05-05 21:46 | 51.50487 | 0.06041 | 20 ft | 12 kts | 154° |
| 2026-05-05 21:47 | 51.50432 | 0.05975 | 20 ft | 10 kts | 243° |
| 2026-05-05 21:47 | 51.50426 | 0.05847 | 20 ft | 13 kts | 276° |
| 2026-05-05 21:47 | 51.50433 | 0.05684 | 20 ft | 15 kts | 272° |
| 2026-05-05 21:47 | 51.50438 | 0.05520 | 21 ft | 6 kts | 272° |
| 2026-05-05 21:48 | 51.50425 | 0.05503 | 21 ft | 0 kts | 188° |
| 2026-05-05 21:48 | 51.50404 | 0.05500 | 20 ft | 2 kts | 182° |
| 2026-05-05 21:48 | 51.50400 | 0.05500 | 20 ft | 0 kts | 183° |